createdAt,value
2019-05-30T00:03:10.471Z,55.50
2019-05-30T00:07:24.865Z,55.60
2019-05-30T00:11:38.863Z,55.70
2019-05-30T00:15:54.500Z,55.80
2019-05-30T00:20:09.223Z,55.80
2019-05-30T00:24:24.115Z,55.80
2019-05-30T00:28:38.052Z,55.80
2019-05-30T00:32:52.595Z,55.90
2019-05-30T00:37:06.457Z,56.00
2019-05-30T00:41:21.412Z,56.00
2019-05-30T00:45:35.638Z,56.10
2019-05-30T00:49:50.017Z,56.20
2019-05-30T00:54:04.734Z,56.20
2019-05-30T00:58:18.976Z,56.20
2019-05-30T01:02:34.020Z,56.20
2019-05-30T01:06:48.288Z,56.20
2019-05-30T01:11:03.194Z,56.20
2019-05-30T01:15:18.982Z,56.10
2019-05-30T01:19:34.294Z,56.20
2019-05-30T01:23:48.110Z,56.30
2019-05-30T01:28:03.408Z,56.40
2019-05-30T01:32:27.453Z,56.40
2019-05-30T01:36:41.695Z,56.40
2019-05-30T01:40:55.587Z,56.50
2019-05-30T01:45:10.061Z,56.50
2019-05-30T01:49:24.102Z,56.50
2019-05-30T01:53:38.148Z,56.60
2019-05-30T01:57:52.131Z,56.60
2019-05-30T02:02:07.218Z,56.60
2019-05-30T02:06:21.467Z,56.60
2019-05-30T02:10:37.867Z,56.70
2019-05-30T02:14:52.144Z,56.90
2019-05-30T02:19:07.818Z,56.70
2019-05-30T02:23:22.239Z,56.80
2019-05-30T02:27:36.759Z,56.80
2019-05-30T02:31:50.676Z,57.00
2019-05-30T02:36:06.341Z,56.90
2019-05-30T02:40:20.921Z,57.00
2019-05-30T02:44:34.781Z,57.00
2019-05-30T02:48:58.940Z,57.00
2019-05-30T02:53:05.966Z,57.00
2019-05-30T02:57:21.868Z,57.10
2019-05-30T03:01:58.327Z,57.20
2019-05-30T03:05:53.589Z,57.20
2019-05-30T03:10:14.592Z,57.20
2019-05-30T03:14:26.910Z,57.30
2019-05-30T03:18:40.637Z,57.50
2019-05-30T03:22:54.637Z,57.40
2019-05-30T03:27:09.921Z,57.40
2019-05-30T03:31:29.435Z,57.40
2019-05-30T03:35:43.963Z,57.40
2019-05-30T03:39:57.771Z,57.40
2019-05-30T04:02:29.260Z,58.30
2019-05-30T04:06:49.216Z,59.20
2019-05-30T04:11:10.392Z,59.70
2019-05-30T04:15:34.609Z,60.00
2019-05-30T04:19:49.240Z,60.30
2019-05-30T04:24:07.130Z,60.70
2019-05-30T04:28:21.226Z,61.10
2019-05-30T04:32:34.782Z,61.50
2019-05-30T04:36:52.991Z,61.80
2019-05-30T04:41:03.817Z,61.80
2019-05-30T04:45:20.082Z,61.90
2019-05-30T04:49:34.028Z,62.00
2019-05-30T04:53:47.959Z,62.00
2019-05-30T04:58:01.442Z,62.10
2019-05-30T05:02:16.433Z,62.20
2019-05-30T05:06:30.462Z,62.30
2019-05-30T05:10:44.884Z,62.70
2019-05-30T05:14:58.488Z,62.90
2019-05-30T05:19:12.894Z,62.20
2019-05-30T05:23:26.667Z,61.60
2019-05-30T05:27:41.484Z,61.60
2019-05-30T05:31:55.953Z,61.50
2019-05-30T05:36:09.716Z,61.30
2019-05-30T05:40:24.396Z,60.40
2019-05-30T05:44:38.195Z,59.50
2019-05-30T05:48:52.408Z,59.70
2019-05-30T05:53:05.937Z,59.50
2019-05-30T05:57:22.963Z,60.10
2019-05-30T06:01:37.077Z,60.50
2019-05-30T06:05:53.347Z,61.20
2019-05-30T06:10:06.575Z,60.90
2019-05-30T06:14:20.223Z,60.30
2019-05-30T06:18:33.762Z,58.90
2019-05-30T06:22:47.589Z,58.30
2019-05-30T06:27:01.990Z,58.60
2019-05-30T06:31:15.629Z,59.40
2019-05-30T06:35:29.493Z,59.20
2019-05-30T06:39:43.592Z,59.80
2019-05-30T06:43:58.081Z,58.40
2019-05-30T06:48:11.989Z,57.40
2019-05-30T06:52:27.008Z,56.20
2019-05-30T06:56:44.063Z,55.30
2019-05-30T07:00:56.339Z,55.20
2019-05-30T07:05:10.554Z,55.20
2019-05-30T07:09:24.891Z,55.30
2019-05-30T07:13:39.084Z,55.40
2019-05-30T07:17:53.297Z,55.30
2019-05-30T07:22:06.960Z,54.20
2019-05-30T07:26:20.587Z,53.50
2019-05-30T07:30:35.401Z,52.80
2019-05-30T07:35:05.218Z,52.10
2019-05-30T07:39:07.538Z,52.30
2019-05-30T07:43:24.787Z,52.20
2019-05-30T07:47:36.709Z,51.90
2019-05-30T07:51:50.684Z,51.00
2019-05-30T07:56:04.828Z,50.10
2019-05-30T08:00:19.425Z,49.80
2019-05-30T08:04:34.155Z,48.60
2019-05-30T08:08:47.899Z,48.20
2019-05-30T08:13:01.941Z,48.30
2019-05-30T08:17:15.956Z,47.80
2019-05-30T08:21:29.969Z,47.70
2019-05-30T08:25:43.759Z,47.60
2019-05-30T08:29:59.301Z,47.40
2019-05-30T08:34:12.833Z,46.80
2019-05-30T08:38:26.523Z,46.10
2019-05-30T08:42:40.410Z,45.70
2019-05-30T08:46:54.755Z,44.80
2019-05-30T08:51:08.482Z,44.60
2019-05-30T08:55:22.073Z,44.30
2019-05-30T08:59:36.665Z,43.90
2019-05-30T09:03:50.520Z,43.70
2019-05-30T09:08:04.231Z,43.90
2019-05-30T09:12:17.962Z,43.10
2019-05-30T09:16:31.376Z,42.70
2019-05-30T09:20:45.360Z,41.80
2019-05-30T09:25:00.399Z,39.10
2019-05-30T09:29:13.988Z,37.20
2019-05-30T09:33:27.543Z,36.80
2019-05-30T09:37:43.810Z,37.00
2019-05-30T09:41:57.477Z,37.90
2019-05-30T09:46:12.478Z,39.00
2019-05-30T09:50:26.144Z,38.70
2019-05-30T09:54:41.176Z,37.50
2019-05-30T09:58:55.883Z,37.30
2019-05-30T10:03:10.812Z,37.40
2019-05-30T10:07:24.701Z,37.70
2019-05-30T10:11:38.198Z,39.30
2019-05-30T10:15:52.575Z,39.20
2019-05-30T10:20:08.002Z,38.80
2019-05-30T10:24:21.704Z,38.50
2019-05-30T10:28:35.650Z,38.50
2019-05-30T10:32:50.352Z,38.70
2019-05-30T10:37:04.766Z,39.40
2019-05-30T10:41:19.539Z,40.80
2019-05-30T10:45:33.534Z,41.70
2019-05-30T10:49:48.579Z,43.00
2019-05-30T10:54:03.315Z,44.20
2019-05-30T10:58:16.885Z,44.50
2019-05-30T11:02:30.507Z,45.10
2019-05-30T11:07:24.000Z,45.60
2019-05-30T11:11:38.335Z,44.70
2019-05-30T11:15:53.488Z,43.00
2019-05-30T11:20:07.610Z,42.10
2019-05-30T11:24:21.634Z,40.30
2019-05-30T11:28:35.411Z,40.00
2019-05-30T11:32:50.844Z,38.80
2019-05-30T11:37:18.236Z,36.20
2019-05-30T11:41:20.619Z,36.10
2019-05-30T11:45:34.234Z,36.30
2019-05-30T11:49:49.497Z,36.20
2019-05-30T11:54:03.370Z,35.10
2019-05-30T11:58:19.565Z,34.00
2019-05-30T12:02:33.396Z,33.90
2019-05-30T12:06:47.738Z,34.00
2019-05-30T12:11:02.270Z,34.30
2019-05-30T12:15:16.373Z,34.70
2019-05-30T12:19:30.413Z,35.10
2019-05-30T12:23:44.032Z,35.10
2019-05-30T12:27:58.255Z,36.10
2019-05-30T12:32:12.110Z,38.20
2019-05-30T12:36:28.732Z,39.20
2019-05-30T12:40:47.756Z,39.00
2019-05-30T12:45:05.462Z,38.00
2019-05-30T12:49:18.604Z,36.40
2019-05-30T12:53:32.971Z,35.70
2019-05-30T12:57:46.642Z,35.50
2019-05-30T13:02:01.239Z,36.20
2019-05-30T13:06:15.221Z,37.80
2019-05-30T13:10:29.366Z,38.90
2019-05-30T13:14:43.143Z,39.30
2019-05-30T13:18:57.930Z,38.20
2019-05-30T13:23:11.880Z,38.10
2019-05-30T13:27:25.375Z,38.10
2019-05-30T13:31:39.384Z,37.70
2019-05-30T13:35:53.315Z,37.10
2019-05-30T13:40:23.637Z,35.80
2019-05-30T13:44:24.182Z,34.90
2019-05-30T13:48:38.139Z,34.50
2019-05-30T13:52:52.146Z,34.40
2019-05-30T13:57:05.924Z,34.10
2019-05-30T14:01:20.530Z,34.00
2019-05-30T14:05:34.162Z,34.40
2019-05-30T14:09:48.471Z,34.70
2019-05-30T14:14:04.668Z,35.00
2019-05-30T14:18:20.291Z,35.40
2019-05-30T14:22:33.923Z,35.30
2019-05-30T14:26:47.621Z,35.30
2019-05-30T14:31:03.201Z,34.90
2019-05-30T14:35:17.139Z,34.90
2019-05-30T14:39:31.138Z,35.00
2019-05-30T14:43:45.007Z,35.20
2019-05-30T14:47:59.573Z,34.90
2019-05-30T14:52:13.402Z,35.20
2019-05-30T14:56:26.986Z,35.50
2019-05-30T15:00:41.263Z,35.50
2019-05-30T15:04:55.036Z,35.60
2019-05-30T15:09:18.957Z,36.20
2019-05-30T15:13:24.441Z,36.10
2019-05-30T15:17:38.313Z,36.00
2019-05-30T15:21:51.903Z,36.10
2019-05-30T15:26:06.016Z,36.40
2019-05-30T15:30:20.350Z,36.60
2019-05-30T15:34:33.895Z,36.70
2019-05-30T15:38:47.924Z,37.00
2019-05-30T15:43:01.524Z,37.10
2019-05-30T15:47:16.183Z,37.30
2019-05-30T15:51:29.813Z,37.10
2019-05-30T15:55:43.481Z,37.20
2019-05-30T15:59:57.058Z,37.40
2019-05-30T16:04:10.597Z,37.50
2019-05-30T16:08:24.221Z,37.50
2019-05-30T16:12:37.914Z,37.40
2019-05-30T16:16:51.734Z,37.30
2019-05-30T16:21:06.339Z,37.30
2019-05-30T16:25:19.931Z,36.90
2019-05-30T16:29:34.535Z,37.00
2019-05-30T16:33:48.139Z,37.40
2019-05-30T16:38:01.918Z,37.30
2019-05-30T16:42:16.314Z,37.50
2019-05-30T16:46:30.449Z,37.80
2019-05-30T16:50:44.043Z,38.10
2019-05-30T16:55:27.601Z,38.10
2019-05-30T16:59:52.918Z,38.00
2019-05-30T17:04:06.851Z,37.90
2019-05-30T17:08:21.981Z,37.90
2019-05-30T17:12:36.294Z,37.60
2019-05-30T17:16:50.157Z,37.60
2019-05-30T17:21:04.198Z,37.40
2019-05-30T17:25:18.967Z,37.20
2019-05-30T17:29:34.135Z,37.30
2019-05-30T17:33:47.787Z,37.60
2019-05-30T17:38:01.711Z,38.50
2019-05-30T17:42:15.797Z,38.00
2019-05-30T17:46:30.059Z,38.20
2019-05-30T17:50:43.823Z,38.00
2019-05-30T17:54:57.699Z,37.90
2019-05-30T17:59:11.203Z,38.20
2019-05-30T18:03:24.808Z,38.20
2019-05-30T18:07:38.792Z,38.60
2019-05-30T18:11:52.559Z,38.90
2019-05-30T18:16:07.430Z,39.10
2019-05-30T18:20:21.265Z,39.10
2019-05-30T18:24:34.911Z,39.00
2019-05-30T18:28:48.385Z,39.10
2019-05-30T18:33:02.145Z,39.00
2019-05-30T18:37:16.127Z,38.90
2019-05-30T18:41:30.842Z,39.00
2019-05-30T18:45:45.140Z,39.20
2019-05-30T18:49:59.931Z,39.30
2019-05-30T18:54:13.482Z,39.40
2019-05-30T18:58:27.413Z,39.70
2019-05-30T19:02:41.486Z,39.80
2019-05-30T19:06:56.063Z,39.90
2019-05-30T19:11:09.879Z,40.00
2019-05-30T19:15:29.302Z,39.90
2019-05-30T19:19:41.189Z,40.00
2019-05-30T19:23:54.987Z,40.20
2019-05-30T19:28:09.330Z,40.10
2019-05-30T19:32:22.980Z,40.30
2019-05-30T19:36:37.306Z,40.40
2019-05-30T19:40:51.828Z,40.60
2019-05-30T19:45:07.355Z,40.70
2019-05-30T19:49:22.063Z,40.80
2019-05-30T19:53:36.923Z,40.90
2019-05-30T19:57:51.303Z,41.00
2019-05-30T20:02:05.607Z,41.10
2019-05-30T20:06:19.448Z,41.20
2019-05-30T20:10:34.979Z,41.30
2019-05-30T20:14:49.749Z,41.40
2019-05-30T20:19:04.122Z,41.40
2019-05-30T20:23:18.716Z,41.50
2019-05-30T20:27:32.951Z,41.70
2019-05-30T20:31:46.565Z,41.80
2019-05-30T20:36:00.442Z,42.00
2019-05-30T20:40:14.565Z,41.90
2019-05-30T20:44:28.644Z,42.00
2019-05-30T20:48:44.709Z,42.20
2019-05-30T20:52:58.068Z,42.30
2019-05-30T20:57:11.760Z,42.40
2019-05-30T21:01:25.386Z,42.40
2019-05-30T21:05:42.075Z,42.50
2019-05-30T21:09:57.351Z,42.60
2019-05-30T21:14:12.361Z,42.70
2019-05-30T21:18:27.280Z,42.70
2019-05-30T21:22:42.214Z,42.80
2019-05-30T21:26:55.863Z,42.90
2019-05-30T21:31:09.672Z,43.00
2019-05-30T21:35:23.794Z,43.10
2019-05-30T21:39:37.957Z,43.30
2019-05-30T21:43:51.678Z,43.30
2019-05-30T21:48:05.704Z,43.40
2019-05-30T21:52:19.889Z,43.50
2019-05-30T21:56:35.733Z,43.50
2019-05-30T22:01:26.114Z,43.60
2019-05-30T22:05:40.835Z,43.70
2019-05-30T22:09:55.265Z,43.70
2019-05-30T22:14:09.097Z,43.80
2019-05-30T22:18:23.486Z,43.90
2019-05-30T22:22:37.419Z,44.00
2019-05-30T22:26:52.545Z,44.00
2019-05-30T22:31:07.251Z,44.10
2019-05-30T22:35:21.984Z,44.10
2019-05-30T22:39:36.166Z,44.20
2019-05-30T22:43:50.550Z,44.20
2019-05-30T22:48:04.759Z,44.30
2019-05-30T22:52:18.721Z,44.50
2019-05-30T22:56:32.591Z,44.50
2019-05-30T23:00:46.151Z,44.70
2019-05-30T23:04:59.931Z,44.80
2019-05-30T23:09:13.464Z,44.90
2019-05-30T23:13:40.096Z,45.00
2019-05-30T23:17:44.032Z,45.00
2019-05-30T23:21:57.935Z,45.10
2019-05-30T23:26:11.461Z,45.10
2019-05-30T23:30:24.930Z,45.20
2019-05-30T23:34:38.577Z,45.30
2019-05-30T23:38:52.723Z,45.30
2019-05-30T23:43:06.316Z,45.30
2019-05-30T23:47:20.150Z,45.40
2019-05-30T23:51:34.119Z,45.60
2019-05-30T23:55:47.640Z,45.50
